sensor_id;sensor_type;location;lat;lon;timestamp;P1;durP1;ratioP1;P2;durP2;ratioP2
13171;SDS011;6651;53.200;10.432;2022-12-07T00:02:09;21.67;;;16.70;;
13171;SDS011;6651;53.200;10.432;2022-12-07T00:04:35;18.98;;;15.57;;
13171;SDS011;6651;53.200;10.432;2022-12-07T00:07:01;19.15;;;15.48;;
13171;SDS011;6651;53.200;10.432;2022-12-07T00:09:27;19.48;;;15.98;;
13171;SDS011;6651;53.200;10.432;2022-12-07T00:11:53;18.45;;;15.13;;
13171;SDS011;6651;53.200;10.432;2022-12-07T00:14:20;19.08;;;16.17;;
13171;SDS011;6651;53.200;10.432;2022-12-07T00:16:46;19.77;;;15.45;;
13171;SDS011;6651;53.200;10.432;2022-12-07T00:19:14;19.95;;;15.82;;
13171;SDS011;6651;53.200;10.432;2022-12-07T00:21:40;18.42;;;15.75;;
13171;SDS011;6651;53.200;10.432;2022-12-07T00:24:06;20.05;;;15.68;;
13171;SDS011;6651;53.200;10.432;2022-12-07T00:26:33;18.70;;;15.48;;
13171;SDS011;6651;53.200;10.432;2022-12-07T00:29:00;19.17;;;14.63;;
13171;SDS011;6651;53.200;10.432;2022-12-07T00:31:28;19.73;;;15.32;;
13171;SDS011;6651;53.200;10.432;2022-12-07T00:33:55;20.42;;;15.85;;
13171;SDS011;6651;53.200;10.432;2022-12-07T00:36:22;18.58;;;15.55;;
13171;SDS011;6651;53.200;10.432;2022-12-07T00:38:48;21.67;;;16.55;;
13171;SDS011;6651;53.200;10.432;2022-12-07T00:41:19;21.52;;;16.35;;
13171;SDS011;6651;53.200;10.432;2022-12-07T00:43:45;19.48;;;16.10;;
13171;SDS011;6651;53.200;10.432;2022-12-07T00:46:12;20.27;;;16.65;;
13171;SDS011;6651;53.200;10.432;2022-12-07T00:48:38;21.67;;;17.13;;
13171;SDS011;6651;53.200;10.432;2022-12-07T00:51:05;22.17;;;17.90;;
13171;SDS011;6651;53.200;10.432;2022-12-07T00:53:33;21.90;;;17.73;;
13171;SDS011;6651;53.200;10.432;2022-12-07T00:56:04;22.40;;;17.55;;
13171;SDS011;6651;53.200;10.432;2022-12-07T00:58:30;24.77;;;16.85;;
13171;SDS011;6651;53.200;10.432;2022-12-07T01:00:56;22.70;;;17.88;;
13171;SDS011;6651;53.200;10.432;2022-12-07T01:03:25;22.77;;;18.58;;
13171;SDS011;6651;53.200;10.432;2022-12-07T01:05:51;22.73;;;18.23;;
13171;SDS011;6651;53.200;10.432;2022-12-07T01:08:18;23.38;;;18.10;;
13171;SDS011;6651;53.200;10.432;2022-12-07T01:10:44;24.05;;;17.70;;
13171;SDS011;6651;53.200;10.432;2022-12-07T01:13:10;21.70;;;17.50;;
13171;SDS011;6651;53.200;10.432;2022-12-07T01:15:43;23.42;;;17.23;;
13171;SDS011;6651;53.200;10.432;2022-12-07T01:18:10;19.85;;;16.13;;
13171;SDS011;6651;53.200;10.432;2022-12-07T01:20:36;20.10;;;15.80;;
13171;SDS011;6651;53.200;10.432;2022-12-07T01:23:02;20.63;;;15.50;;
13171;SDS011;6651;53.200;10.432;2022-12-07T01:25:29;18.27;;;15.27;;
13171;SDS011;6651;53.200;10.432;2022-12-07T01:27:55;19.40;;;15.55;;
13171;SDS011;6651;53.200;10.432;2022-12-07T01:30:21;18.00;;;14.82;;
13171;SDS011;6651;53.200;10.432;2022-12-07T01:32:47;19.15;;;15.15;;
13171;SDS011;6651;53.200;10.432;2022-12-07T01:35:13;20.13;;;15.23;;
13171;SDS011;6651;53.200;10.432;2022-12-07T01:37:39;19.77;;;15.48;;
13171;SDS011;6651;53.200;10.432;2022-12-07T01:40:06;18.88;;;15.13;;
13171;SDS011;6651;53.200;10.432;2022-12-07T01:42:33;19.33;;;15.18;;
13171;SDS011;6651;53.200;10.432;2022-12-07T01:47:55;21.85;;;15.30;;
13171;SDS011;6651;53.200;10.432;2022-12-07T01:50:24;19.08;;;14.98;;
13171;SDS011;6651;53.200;10.432;2022-12-07T01:52:52;21.10;;;14.82;;
13171;SDS011;6651;53.200;10.432;2022-12-07T01:55:19;19.10;;;16.00;;
13171;SDS011;6651;53.200;10.432;2022-12-07T01:57:47;20.00;;;14.80;;
13171;SDS011;6651;53.200;10.432;2022-12-07T02:00:13;18.80;;;14.73;;
13171;SDS011;6651;53.200;10.432;2022-12-07T02:05:11;19.55;;;15.75;;
13171;SDS011;6651;53.200;10.432;2022-12-07T02:07:39;20.33;;;15.15;;
13171;SDS011;6651;53.200;10.432;2022-12-07T02:10:15;21.35;;;15.80;;
13171;SDS011;6651;53.200;10.432;2022-12-07T02:12:42;20.77;;;15.35;;
13171;SDS011;6651;53.200;10.432;2022-12-07T02:15:09;18.85;;;14.43;;
13171;SDS011;6651;53.200;10.432;2022-12-07T02:27:47;17.50;;;13.52;;
13171;SDS011;6651;53.200;10.432;2022-12-07T02:30:19;19.60;;;14.02;;
13171;SDS011;6651;53.200;10.432;2022-12-07T02:35:19;15.90;;;13.38;;
13171;SDS011;6651;53.200;10.432;2022-12-07T02:42:49;16.15;;;12.43;;
13171;SDS011;6651;53.200;10.432;2022-12-07T02:45:17;17.33;;;12.30;;
13171;SDS011;6651;53.200;10.432;2022-12-07T02:47:46;17.85;;;13.10;;
13171;SDS011;6651;53.200;10.432;2022-12-07T02:50:14;19.98;;;12.45;;
13171;SDS011;6651;53.200;10.432;2022-12-07T02:52:43;16.27;;;12.25;;
13171;SDS011;6651;53.200;10.432;2022-12-07T02:55:09;16.58;;;12.27;;
13171;SDS011;6651;53.200;10.432;2022-12-07T03:00:18;16.33;;;12.13;;
13171;SDS011;6651;53.200;10.432;2022-12-07T03:05:23;14.25;;;10.68;;
13171;SDS011;6651;53.200;10.432;2022-12-07T03:15:26;11.73;;;8.75;;
13171;SDS011;6651;53.200;10.432;2022-12-07T03:17:53;17.25;;;9.25;;
13171;SDS011;6651;53.200;10.432;2022-12-07T03:20:21;12.30;;;8.05;;
13171;SDS011;6651;53.200;10.432;2022-12-07T03:22:47;12.25;;;7.75;;
13171;SDS011;6651;53.200;10.432;2022-12-07T03:25:14;13.65;;;8.35;;
13171;SDS011;6651;53.200;10.432;2022-12-07T03:27:43;11.75;;;7.63;;
13171;SDS011;6651;53.200;10.432;2022-12-07T03:30:20;12.20;;;7.78;;
13171;SDS011;6651;53.200;10.432;2022-12-07T03:32:50;11.25;;;7.72;;
13171;SDS011;6651;53.200;10.432;2022-12-07T03:35:25;9.23;;;7.10;;
13171;SDS011;6651;53.200;10.432;2022-12-07T03:40:39;10.77;;;6.85;;
13171;SDS011;6651;53.200;10.432;2022-12-07T03:43:06;10.00;;;7.18;;
13171;SDS011;6651;53.200;10.432;2022-12-07T03:45:37;10.05;;;6.50;;
13171;SDS011;6651;53.200;10.432;2022-12-07T03:50:50;11.20;;;6.35;;
13171;SDS011;6651;53.200;10.432;2022-12-07T03:53:19;10.75;;;6.90;;
13171;SDS011;6651;53.200;10.432;2022-12-07T03:55:46;10.63;;;6.38;;
13171;SDS011;6651;53.200;10.432;2022-12-07T03:58:15;8.68;;;5.90;;
13171;SDS011;6651;53.200;10.432;2022-12-07T04:00:43;9.48;;;6.00;;
13171;SDS011;6651;53.200;10.432;2022-12-07T04:03:09;9.45;;;5.82;;
13171;SDS011;6651;53.200;10.432;2022-12-07T04:05:36;8.65;;;5.80;;
13171;SDS011;6651;53.200;10.432;2022-12-07T04:08:02;9.65;;;5.53;;
13171;SDS011;6651;53.200;10.432;2022-12-07T04:10:28;10.15;;;5.53;;
13171;SDS011;6651;53.200;10.432;2022-12-07T04:12:54;9.30;;;5.30;;
13171;SDS011;6651;53.200;10.432;2022-12-07T04:15:21;8.38;;;5.07;;
13171;SDS011;6651;53.200;10.432;2022-12-07T04:17:47;7.53;;;5.03;;
13171;SDS011;6651;53.200;10.432;2022-12-07T04:20:13;9.02;;;5.38;;
13171;SDS011;6651;53.200;10.432;2022-12-07T04:22:39;10.35;;;5.28;;
13171;SDS011;6651;53.200;10.432;2022-12-07T04:25:05;8.85;;;5.97;;
13171;SDS011;6651;53.200;10.432;2022-12-07T04:27:31;8.60;;;5.13;;
13171;SDS011;6651;53.200;10.432;2022-12-07T04:29:57;8.85;;;5.55;;
13171;SDS011;6651;53.200;10.432;2022-12-07T04:32:23;8.77;;;5.05;;
13171;SDS011;6651;53.200;10.432;2022-12-07T04:34:49;6.18;;;4.55;;
13171;SDS011;6651;53.200;10.432;2022-12-07T04:37:15;10.25;;;5.03;;
13171;SDS011;6651;53.200;10.432;2022-12-07T04:39:42;8.13;;;4.95;;
13171;SDS011;6651;53.200;10.432;2022-12-07T04:42:09;9.45;;;4.65;;
13171;SDS011;6651;53.200;10.432;2022-12-07T04:44:35;8.20;;;4.93;;
13171;SDS011;6651;53.200;10.432;2022-12-07T04:47:02;6.82;;;4.50;;
13171;SDS011;6651;53.200;10.432;2022-12-07T04:49:28;9.07;;;5.07;;
13171;SDS011;6651;53.200;10.432;2022-12-07T04:51:54;9.05;;;4.65;;
13171;SDS011;6651;53.200;10.432;2022-12-07T04:54:20;8.88;;;4.40;;
13171;SDS011;6651;53.200;10.432;2022-12-07T04:56:46;6.32;;;4.18;;
13171;SDS011;6651;53.200;10.432;2022-12-07T04:59:13;6.75;;;4.50;;
13171;SDS011;6651;53.200;10.432;2022-12-07T05:01:41;6.93;;;4.47;;
13171;SDS011;6651;53.200;10.432;2022-12-07T05:04:08;8.35;;;4.30;;
13171;SDS011;6651;53.200;10.432;2022-12-07T05:06:34;5.63;;;3.92;;
13171;SDS011;6651;53.200;10.432;2022-12-07T05:09:00;7.85;;;4.45;;
13171;SDS011;6651;53.200;10.432;2022-12-07T05:11:26;6.93;;;4.20;;
13171;SDS011;6651;53.200;10.432;2022-12-07T05:14:17;6.22;;;4.07;;
13171;SDS011;6651;53.200;10.432;2022-12-07T05:16:44;7.65;;;4.10;;
13171;SDS011;6651;53.200;10.432;2022-12-07T05:19:11;6.90;;;4.10;;
13171;SDS011;6651;53.200;10.432;2022-12-07T05:21:37;7.75;;;4.15;;
13171;SDS011;6651;53.200;10.432;2022-12-07T05:24:03;5.75;;;3.70;;
13171;SDS011;6651;53.200;10.432;2022-12-07T05:26:30;7.95;;;4.00;;
13171;SDS011;6651;53.200;10.432;2022-12-07T05:28:56;5.60;;;3.95;;
13171;SDS011;6651;53.200;10.432;2022-12-07T05:31:22;7.53;;;4.13;;
13171;SDS011;6651;53.200;10.432;2022-12-07T05:33:49;7.70;;;3.88;;
13171;SDS011;6651;53.200;10.432;2022-12-07T05:36:15;8.15;;;4.60;;
13171;SDS011;6651;53.200;10.432;2022-12-07T05:38:41;8.10;;;4.72;;
13171;SDS011;6651;53.200;10.432;2022-12-07T05:41:08;6.28;;;4.07;;
13171;SDS011;6651;53.200;10.432;2022-12-07T05:43:55;6.47;;;4.00;;
13171;SDS011;6651;53.200;10.432;2022-12-07T05:46:21;5.63;;;3.65;;
13171;SDS011;6651;53.200;10.432;2022-12-07T05:48:47;6.60;;;3.70;;
13171;SDS011;6651;53.200;10.432;2022-12-07T05:51:13;5.60;;;3.38;;
13171;SDS011;6651;53.200;10.432;2022-12-07T05:53:39;5.43;;;3.53;;
13171;SDS011;6651;53.200;10.432;2022-12-07T05:56:05;5.82;;;3.40;;
13171;SDS011;6651;53.200;10.432;2022-12-07T05:58:31;8.82;;;3.97;;
13171;SDS011;6651;53.200;10.432;2022-12-07T06:01:15;6.63;;;3.70;;
13171;SDS011;6651;53.200;10.432;2022-12-07T06:03:41;4.63;;;3.55;;
13171;SDS011;6651;53.200;10.432;2022-12-07T06:06:07;7.40;;;3.70;;
13171;SDS011;6651;53.200;10.432;2022-12-07T06:08:33;6.93;;;3.67;;
13171;SDS011;6651;53.200;10.432;2022-12-07T06:10:59;4.60;;;3.70;;
13171;SDS011;6651;53.200;10.432;2022-12-07T06:13:44;5.97;;;3.47;;
13171;SDS011;6651;53.200;10.432;2022-12-07T06:16:10;5.63;;;4.00;;
13171;SDS011;6651;53.200;10.432;2022-12-07T06:18:36;8.02;;;3.65;;
13171;SDS011;6651;53.200;10.432;2022-12-07T06:21:02;5.75;;;3.60;;
13171;SDS011;6651;53.200;10.432;2022-12-07T06:23:28;6.68;;;3.55;;
13171;SDS011;6651;53.200;10.432;2022-12-07T06:25:54;5.88;;;3.67;;
13171;SDS011;6651;53.200;10.432;2022-12-07T06:28:20;5.85;;;3.45;;
13171;SDS011;6651;53.200;10.432;2022-12-07T06:30:46;4.75;;;3.40;;
13171;SDS011;6651;53.200;10.432;2022-12-07T06:33:12;5.07;;;3.70;;
13171;SDS011;6651;53.200;10.432;2022-12-07T06:35:38;7.53;;;4.60;;
13171;SDS011;6651;53.200;10.432;2022-12-07T06:38:04;7.68;;;3.90;;
13171;SDS011;6651;53.200;10.432;2022-12-07T06:40:30;6.15;;;3.80;;
13171;SDS011;6651;53.200;10.432;2022-12-07T06:42:56;5.90;;;3.58;;
13171;SDS011;6651;53.200;10.432;2022-12-07T06:45:22;6.93;;;4.03;;
13171;SDS011;6651;53.200;10.432;2022-12-07T06:47:48;5.18;;;3.78;;
13171;SDS011;6651;53.200;10.432;2022-12-07T06:50:14;7.88;;;4.20;;
13171;SDS011;6651;53.200;10.432;2022-12-07T06:52:40;6.47;;;4.28;;
13171;SDS011;6651;53.200;10.432;2022-12-07T06:55:06;7.38;;;4.32;;
13171;SDS011;6651;53.200;10.432;2022-12-07T06:57:32;6.82;;;4.20;;
13171;SDS011;6651;53.200;10.432;2022-12-07T06:59:58;10.63;;;4.22;;
13171;SDS011;6651;53.200;10.432;2022-12-07T07:02:24;9.07;;;4.35;;
13171;SDS011;6651;53.200;10.432;2022-12-07T07:04:50;10.63;;;4.70;;
13171;SDS011;6651;53.200;10.432;2022-12-07T07:07:16;10.88;;;5.93;;
13171;SDS011;6651;53.200;10.432;2022-12-07T07:09:42;9.07;;;5.07;;
13171;SDS011;6651;53.200;10.432;2022-12-07T07:12:08;8.43;;;4.75;;
13171;SDS011;6651;53.200;10.432;2022-12-07T07:14:34;9.48;;;5.18;;
13171;SDS011;6651;53.200;10.432;2022-12-07T07:17:01;10.02;;;4.75;;
13171;SDS011;6651;53.200;10.432;2022-12-07T07:19:27;8.35;;;4.82;;
13171;SDS011;6651;53.200;10.432;2022-12-07T07:21:53;7.15;;;4.47;;
13171;SDS011;6651;53.200;10.432;2022-12-07T07:24:19;7.50;;;4.30;;
13171;SDS011;6651;53.200;10.432;2022-12-07T07:26:45;6.40;;;3.72;;
13171;SDS011;6651;53.200;10.432;2022-12-07T07:29:11;6.13;;;3.50;;
13171;SDS011;6651;53.200;10.432;2022-12-07T07:31:37;8.27;;;3.58;;
13171;SDS011;6651;53.200;10.432;2022-12-07T07:34:04;5.05;;;3.25;;
13171;SDS011;6651;53.200;10.432;2022-12-07T07:36:30;6.28;;;3.83;;
13171;SDS011;6651;53.200;10.432;2022-12-07T07:38:56;6.30;;;3.47;;
13171;SDS011;6651;53.200;10.432;2022-12-07T07:41:22;7.68;;;4.07;;
13171;SDS011;6651;53.200;10.432;2022-12-07T07:43:48;6.80;;;3.97;;
13171;SDS011;6651;53.200;10.432;2022-12-07T07:46:14;8.70;;;4.15;;
13171;SDS011;6651;53.200;10.432;2022-12-07T07:48:40;8.30;;;4.03;;
13171;SDS011;6651;53.200;10.432;2022-12-07T07:51:06;6.10;;;4.10;;
13171;SDS011;6651;53.200;10.432;2022-12-07T07:53:32;5.68;;;3.63;;
13171;SDS011;6651;53.200;10.432;2022-12-07T07:55:59;6.07;;;3.80;;
13171;SDS011;6651;53.200;10.432;2022-12-07T07:58:25;8.65;;;4.30;;
13171;SDS011;6651;53.200;10.432;2022-12-07T08:00:51;8.02;;;4.10;;
13171;SDS011;6651;53.200;10.432;2022-12-07T08:03:17;5.68;;;3.60;;
13171;SDS011;6651;53.200;10.432;2022-12-07T08:05:43;7.05;;;3.60;;
13171;SDS011;6651;53.200;10.432;2022-12-07T08:08:09;6.28;;;3.33;;
13171;SDS011;6651;53.200;10.432;2022-12-07T08:10:35;6.07;;;3.40;;
13171;SDS011;6651;53.200;10.432;2022-12-07T08:13:02;5.68;;;3.22;;
13171;SDS011;6651;53.200;10.432;2022-12-07T08:15:38;6.53;;;3.50;;
13171;SDS011;6651;53.200;10.432;2022-12-07T08:18:05;7.03;;;3.33;;
13171;SDS011;6651;53.200;10.432;2022-12-07T08:20:31;4.57;;;3.13;;
13171;SDS011;6651;53.200;10.432;2022-12-07T08:22:57;4.97;;;3.22;;
13171;SDS011;6651;53.200;10.432;2022-12-07T08:25:24;4.65;;;2.92;;
13171;SDS011;6651;53.200;10.432;2022-12-07T08:27:50;4.82;;;3.20;;
13171;SDS011;6651;53.200;10.432;2022-12-07T08:30:17;6.25;;;3.15;;
13171;SDS011;6651;53.200;10.432;2022-12-07T08:32:46;5.45;;;3.35;;
13171;SDS011;6651;53.200;10.432;2022-12-07T08:35:12;5.28;;;2.80;;
13171;SDS011;6651;53.200;10.432;2022-12-07T08:37:38;6.10;;;3.10;;
13171;SDS011;6651;53.200;10.432;2022-12-07T08:40:05;6.25;;;3.10;;
13171;SDS011;6651;53.200;10.432;2022-12-07T08:42:32;4.78;;;3.03;;
13171;SDS011;6651;53.200;10.432;2022-12-07T08:45:06;5.40;;;2.90;;
13171;SDS011;6651;53.200;10.432;2022-12-07T08:47:32;5.47;;;2.78;;
13171;SDS011;6651;53.200;10.432;2022-12-07T08:49:59;4.68;;;3.10;;
13171;SDS011;6651;53.200;10.432;2022-12-07T08:52:28;5.82;;;3.03;;
13171;SDS011;6651;53.200;10.432;2022-12-07T08:54:55;6.05;;;2.90;;
13171;SDS011;6651;53.200;10.432;2022-12-07T08:57:21;7.72;;;3.28;;
13171;SDS011;6651;53.200;10.432;2022-12-07T08:59:47;6.90;;;3.47;;
13171;SDS011;6651;53.200;10.432;2022-12-07T09:02:13;7.35;;;3.53;;
13171;SDS011;6651;53.200;10.432;2022-12-07T09:04:39;3.67;;;2.80;;
13171;SDS011;6651;53.200;10.432;2022-12-07T09:07:05;4.50;;;2.85;;
13171;SDS011;6651;53.200;10.432;2022-12-07T09:09:31;5.05;;;2.97;;
13171;SDS011;6651;53.200;10.432;2022-12-07T09:11:57;4.07;;;2.72;;
13171;SDS011;6651;53.200;10.432;2022-12-07T09:14:23;5.20;;;2.95;;
13171;SDS011;6651;53.200;10.432;2022-12-07T09:16:49;5.55;;;2.90;;
13171;SDS011;6651;53.200;10.432;2022-12-07T09:19:16;5.22;;;3.20;;
13171;SDS011;6651;53.200;10.432;2022-12-07T09:21:42;4.43;;;2.65;;
13171;SDS011;6651;53.200;10.432;2022-12-07T09:24:08;5.68;;;2.85;;
13171;SDS011;6651;53.200;10.432;2022-12-07T09:26:34;4.90;;;2.60;;
13171;SDS011;6651;53.200;10.432;2022-12-07T09:29:01;5.80;;;2.80;;
13171;SDS011;6651;53.200;10.432;2022-12-07T09:31:27;5.63;;;2.58;;
13171;SDS011;6651;53.200;10.432;2022-12-07T09:33:54;3.85;;;2.60;;
13171;SDS011;6651;53.200;10.432;2022-12-07T09:36:21;5.15;;;2.45;;
13171;SDS011;6651;53.200;10.432;2022-12-07T09:38:47;4.45;;;2.42;;
13171;SDS011;6651;53.200;10.432;2022-12-07T09:41:13;6.85;;;2.70;;
13171;SDS011;6651;53.200;10.432;2022-12-07T09:43:40;6.72;;;3.05;;
13171;SDS011;6651;53.200;10.432;2022-12-07T09:46:08;7.97;;;2.88;;
13171;SDS011;6651;53.200;10.432;2022-12-07T09:48:36;4.35;;;2.30;;
13171;SDS011;6651;53.200;10.432;2022-12-07T09:51:25;5.65;;;3.10;;
13171;SDS011;6651;53.200;10.432;2022-12-07T09:53:51;7.25;;;3.83;;
13171;SDS011;6651;53.200;10.432;2022-12-07T09:56:17;9.35;;;4.45;;
13171;SDS011;6651;53.200;10.432;2022-12-07T09:58:44;9.90;;;3.08;;
13171;SDS011;6651;53.200;10.432;2022-12-07T10:01:15;5.95;;;3.03;;
13171;SDS011;6651;53.200;10.432;2022-12-07T10:03:48;6.63;;;2.60;;
13171;SDS011;6651;53.200;10.432;2022-12-07T10:06:15;4.85;;;2.40;;
13171;SDS011;6651;53.200;10.432;2022-12-07T10:08:41;3.78;;;2.22;;
13171;SDS011;6651;53.200;10.432;2022-12-07T10:11:08;6.97;;;2.50;;
13171;SDS011;6651;53.200;10.432;2022-12-07T10:13:39;4.68;;;2.28;;
13171;SDS011;6651;53.200;10.432;2022-12-07T10:16:06;6.53;;;2.90;;
13171;SDS011;6651;53.200;10.432;2022-12-07T10:18:39;5.00;;;2.85;;
13171;SDS011;6651;53.200;10.432;2022-12-07T10:21:13;8.00;;;2.80;;
13171;SDS011;6651;53.200;10.432;2022-12-07T10:28:52;5.65;;;2.70;;
13171;SDS011;6651;53.200;10.432;2022-12-07T10:31:19;7.38;;;3.10;;
13171;SDS011;6651;53.200;10.432;2022-12-07T10:33:50;4.90;;;2.20;;
13171;SDS011;6651;53.200;10.432;2022-12-07T10:38:44;6.35;;;2.13;;
13171;SDS011;6651;53.200;10.432;2022-12-07T10:41:10;4.80;;;2.13;;
13171;SDS011;6651;53.200;10.432;2022-12-07T10:43:36;7.50;;;2.40;;
13171;SDS011;6651;53.200;10.432;2022-12-07T10:48:34;4.47;;;1.90;;
13171;SDS011;6651;53.200;10.432;2022-12-07T11:17:56;3.90;;;1.95;;
13171;SDS011;6651;53.200;10.432;2022-12-07T11:25:28;3.13;;;1.02;;
13171;SDS011;6651;53.200;10.432;2022-12-07T11:30:42;3.47;;;1.70;;
13171;SDS011;6651;53.200;10.432;2022-12-07T11:33:22;4.05;;;1.60;;
13171;SDS011;6651;53.200;10.432;2022-12-07T11:38:37;4.25;;;1.55;;
13171;SDS011;6651;53.200;10.432;2022-12-07T11:41:06;5.60;;;1.90;;
13171;SDS011;6651;53.200;10.432;2022-12-07T11:43:46;2.88;;;1.85;;
13171;SDS011;6651;53.200;10.432;2022-12-07T11:46:15;5.57;;;1.90;;
13171;SDS011;6651;53.200;10.432;2022-12-07T11:48:55;6.85;;;2.35;;
13171;SDS011;6651;53.200;10.432;2022-12-07T11:51:24;3.97;;;2.08;;
13171;SDS011;6651;53.200;10.432;2022-12-07T11:53:53;4.10;;;1.70;;
13171;SDS011;6651;53.200;10.432;2022-12-07T11:56:22;6.75;;;2.10;;
13171;SDS011;6651;53.200;10.432;2022-12-07T11:58:51;5.35;;;1.90;;
13171;SDS011;6651;53.200;10.432;2022-12-07T12:01:22;4.35;;;2.20;;
13171;SDS011;6651;53.200;10.432;2022-12-07T12:03:52;3.17;;;1.60;;
13171;SDS011;6651;53.200;10.432;2022-12-07T12:06:19;5.18;;;2.08;;
13171;SDS011;6651;53.200;10.432;2022-12-07T12:08:50;5.70;;;2.03;;
13171;SDS011;6651;53.200;10.432;2022-12-07T12:21:12;5.25;;;1.92;;
13171;SDS011;6651;53.200;10.432;2022-12-07T12:26:06;6.18;;;2.15;;
13171;SDS011;6651;53.200;10.432;2022-12-07T12:28:38;6.75;;;2.15;;
13171;SDS011;6651;53.200;10.432;2022-12-07T12:33:31;6.55;;;2.03;;
13171;SDS011;6651;53.200;10.432;2022-12-07T12:51:44;5.18;;;2.30;;
13171;SDS011;6651;53.200;10.432;2022-12-07T12:56:49;5.68;;;2.25;;
13171;SDS011;6651;53.200;10.432;2022-12-07T12:59:24;7.40;;;2.75;;
13171;SDS011;6651;53.200;10.432;2022-12-07T13:01:55;4.68;;;1.88;;
13171;SDS011;6651;53.200;10.432;2022-12-07T13:06:47;6.00;;;2.10;;
13171;SDS011;6651;53.200;10.432;2022-12-07T13:09:24;7.25;;;2.25;;
13171;SDS011;6651;53.200;10.432;2022-12-07T13:11:59;5.45;;;2.20;;
13171;SDS011;6651;53.200;10.432;2022-12-07T13:14:39;6.65;;;2.20;;
13171;SDS011;6651;53.200;10.432;2022-12-07T13:17:09;4.95;;;2.00;;
13171;SDS011;6651;53.200;10.432;2022-12-07T13:25:35;6.03;;;2.65;;
13171;SDS011;6651;53.200;10.432;2022-12-07T13:27:43;4.25;;;2.15;;
13171;SDS011;6651;53.200;10.432;2022-12-07T13:30:13;5.57;;;1.88;;
13171;SDS011;6651;53.200;10.432;2022-12-07T13:32:40;5.90;;;2.38;;
13171;SDS011;6651;53.200;10.432;2022-12-07T13:37:51;7.50;;;1.92;;
13171;SDS011;6651;53.200;10.432;2022-12-07T13:40:18;8.18;;;2.00;;
13171;SDS011;6651;53.200;10.432;2022-12-07T13:42:45;6.95;;;2.13;;
13171;SDS011;6651;53.200;10.432;2022-12-07T13:45:23;8.40;;;2.20;;
13171;SDS011;6651;53.200;10.432;2022-12-07T13:48:08;9.38;;;3.80;;
13171;SDS011;6651;53.200;10.432;2022-12-07T13:50:36;4.78;;;1.80;;
13171;SDS011;6651;53.200;10.432;2022-12-07T13:53:07;6.82;;;1.67;;
13171;SDS011;6651;53.200;10.432;2022-12-07T13:55:33;6.22;;;2.20;;
13171;SDS011;6651;53.200;10.432;2022-12-07T13:58:00;6.68;;;2.03;;
13171;SDS011;6651;53.200;10.432;2022-12-07T14:00:26;8.32;;;2.22;;
13171;SDS011;6651;53.200;10.432;2022-12-07T14:03:03;7.47;;;2.78;;
13171;SDS011;6651;53.200;10.432;2022-12-07T14:05:33;6.57;;;2.50;;
13171;SDS011;6651;53.200;10.432;2022-12-07T14:15:52;6.45;;;2.17;;
13171;SDS011;6651;53.200;10.432;2022-12-07T14:18:25;4.55;;;1.73;;
13171;SDS011;6651;53.200;10.432;2022-12-07T14:23:25;6.00;;;2.53;;
13171;SDS011;6651;53.200;10.432;2022-12-07T14:25:52;4.47;;;2.00;;
13171;SDS011;6651;53.200;10.432;2022-12-07T14:28:28;7.43;;;2.65;;
13171;SDS011;6651;53.200;10.432;2022-12-07T14:30:55;8.27;;;5.53;;
13171;SDS011;6651;53.200;10.432;2022-12-07T14:33:21;8.15;;;4.35;;
13171;SDS011;6651;53.200;10.432;2022-12-07T14:35:48;7.30;;;3.85;;
13171;SDS011;6651;53.200;10.432;2022-12-07T14:38:14;8.52;;;2.90;;
13171;SDS011;6651;53.200;10.432;2022-12-07T14:40:43;6.28;;;2.40;;
13171;SDS011;6651;53.200;10.432;2022-12-07T14:43:10;6.55;;;2.30;;
13171;SDS011;6651;53.200;10.432;2022-12-07T14:45:37;5.82;;;2.20;;
13171;SDS011;6651;53.200;10.432;2022-12-07T14:48:04;8.70;;;2.97;;
13171;SDS011;6651;53.200;10.432;2022-12-07T14:50:30;8.98;;;2.65;;
13171;SDS011;6651;53.200;10.432;2022-12-07T14:52:59;6.00;;;2.10;;
13171;SDS011;6651;53.200;10.432;2022-12-07T14:55:30;6.20;;;2.55;;
13171;SDS011;6651;53.200;10.432;2022-12-07T14:57:56;8.55;;;3.55;;
13171;SDS011;6651;53.200;10.432;2022-12-07T15:00:24;6.32;;;3.55;;
13171;SDS011;6651;53.200;10.432;2022-12-07T15:02:51;8.07;;;3.50;;
13171;SDS011;6651;53.200;10.432;2022-12-07T15:05:17;8.52;;;3.80;;
13171;SDS011;6651;53.200;10.432;2022-12-07T15:07:44;6.97;;;3.20;;
13171;SDS011;6651;53.200;10.432;2022-12-07T15:10:18;8.30;;;2.88;;
13171;SDS011;6651;53.200;10.432;2022-12-07T15:12:44;7.50;;;3.58;;
13171;SDS011;6651;53.200;10.432;2022-12-07T15:15:11;6.30;;;3.10;;
13171;SDS011;6651;53.200;10.432;2022-12-07T15:17:37;6.10;;;3.13;;
13171;SDS011;6651;53.200;10.432;2022-12-07T15:20:04;6.22;;;2.95;;
13171;SDS011;6651;53.200;10.432;2022-12-07T15:22:30;8.07;;;3.10;;
13171;SDS011;6651;53.200;10.432;2022-12-07T15:24:56;7.38;;;3.33;;
13171;SDS011;6651;53.200;10.432;2022-12-07T15:27:23;5.22;;;2.83;;
13171;SDS011;6651;53.200;10.432;2022-12-07T15:29:49;7.05;;;2.83;;
13171;SDS011;6651;53.200;10.432;2022-12-07T15:32:15;7.22;;;3.17;;
13171;SDS011;6651;53.200;10.432;2022-12-07T15:34:41;5.15;;;2.65;;
13171;SDS011;6651;53.200;10.432;2022-12-07T15:37:07;6.95;;;2.60;;
13171;SDS011;6651;53.200;10.432;2022-12-07T15:39:33;9.25;;;2.85;;
13171;SDS011;6651;53.200;10.432;2022-12-07T15:42:00;5.20;;;2.67;;
13171;SDS011;6651;53.200;10.432;2022-12-07T15:44:27;8.13;;;2.92;;
13171;SDS011;6651;53.200;10.432;2022-12-07T15:47:12;8.10;;;2.80;;
13171;SDS011;6651;53.200;10.432;2022-12-07T15:49:38;8.27;;;3.92;;
13171;SDS011;6651;53.200;10.432;2022-12-07T15:52:04;5.88;;;3.58;;
13171;SDS011;6651;53.200;10.432;2022-12-07T15:54:30;8.82;;;3.85;;
13171;SDS011;6651;53.200;10.432;2022-12-07T15:56:57;8.18;;;2.85;;
13171;SDS011;6651;53.200;10.432;2022-12-07T15:59:23;5.97;;;2.83;;
13171;SDS011;6651;53.200;10.432;2022-12-07T16:01:49;6.82;;;3.85;;
13171;SDS011;6651;53.200;10.432;2022-12-07T16:04:15;7.25;;;3.00;;
13171;SDS011;6651;53.200;10.432;2022-12-07T16:06:41;7.22;;;3.30;;
13171;SDS011;6651;53.200;10.432;2022-12-07T16:09:07;6.60;;;2.67;;
13171;SDS011;6651;53.200;10.432;2022-12-07T16:11:33;7.20;;;3.22;;
13171;SDS011;6651;53.200;10.432;2022-12-07T16:13:59;3.83;;;2.58;;
13171;SDS011;6651;53.200;10.432;2022-12-07T16:16:26;7.18;;;3.30;;
13171;SDS011;6651;53.200;10.432;2022-12-07T16:18:52;6.10;;;3.67;;
13171;SDS011;6651;53.200;10.432;2022-12-07T16:21:20;5.50;;;3.08;;
13171;SDS011;6651;53.200;10.432;2022-12-07T16:23:46;6.15;;;3.50;;
13171;SDS011;6651;53.200;10.432;2022-12-07T16:26:13;8.15;;;3.88;;
13171;SDS011;6651;53.200;10.432;2022-12-07T16:28:40;7.30;;;4.10;;
13171;SDS011;6651;53.200;10.432;2022-12-07T16:31:10;7.20;;;4.07;;
13171;SDS011;6651;53.200;10.432;2022-12-07T16:33:37;7.35;;;3.67;;
13171;SDS011;6651;53.200;10.432;2022-12-07T16:36:04;9.82;;;4.00;;
13171;SDS011;6651;53.200;10.432;2022-12-07T16:38:31;7.43;;;3.83;;
13171;SDS011;6651;53.200;10.432;2022-12-07T16:40:57;8.65;;;4.35;;
13171;SDS011;6651;53.200;10.432;2022-12-07T16:43:23;6.18;;;3.53;;
13171;SDS011;6651;53.200;10.432;2022-12-07T16:45:49;5.32;;;3.47;;
13171;SDS011;6651;53.200;10.432;2022-12-07T16:48:16;4.57;;;3.22;;
13171;SDS011;6651;53.200;10.432;2022-12-07T16:50:42;4.90;;;3.15;;
13171;SDS011;6651;53.200;10.432;2022-12-07T16:53:09;6.13;;;3.33;;
13171;SDS011;6651;53.200;10.432;2022-12-07T16:55:39;5.93;;;3.13;;
13171;SDS011;6651;53.200;10.432;2022-12-07T16:58:05;5.20;;;3.30;;
13171;SDS011;6651;53.200;10.432;2022-12-07T17:00:32;9.45;;;3.90;;
13171;SDS011;6651;53.200;10.432;2022-12-07T17:02:58;8.65;;;4.13;;
13171;SDS011;6651;53.200;10.432;2022-12-07T17:05:24;6.97;;;4.10;;
13171;SDS011;6651;53.200;10.432;2022-12-07T17:07:53;6.90;;;3.78;;
13171;SDS011;6651;53.200;10.432;2022-12-07T17:10:19;5.72;;;3.78;;